Time;durP1;ratioP1;P1;durP2;ratioP2;P2;SDS_P1;SDS_P2;PMS_P1;PMS_P2;Temp;Humidity;BMP_temperature;BMP_pressure;BME280_temperature;BME280_humidity;BME280_pressure;Samples;Min_cycle;Max_cycle;Signal;HPM_P1;HPM_P2
2022/07/04 00:00:09;;;;;;;4.90;4.60;;;;;;;;;;5077823;28;24456;-47
2022/07/04 00:02:35;;;;;;;5.03;4.73;;;;;;;;;;5076714;28;25005;-47
2022/07/04 00:05:00;;;;;;;4.50;4.20;;;;;;;;;;5076320;28;24428;-47
2022/07/04 00:07:25;;;;;;;4.20;3.90;;;;;;;;;;5083454;28;24465;-48
2022/07/04 00:09:50;;;;;;;4.93;4.60;;;;;;;;;;5080220;28;24414;-48
2022/07/04 00:12:15;;;;;;;4.70;4.40;;;;;;;;;;5080927;28;24483;-47
2022/07/04 00:14:41;;;;;;;5.00;4.60;;;;;;;;;;5079444;28;24420;-47
2022/07/04 00:17:06;;;;;;;5.35;4.85;;;;;;;;;;5078733;28;24465;-47
2022/07/04 00:19:31;;;;;;;5.40;5.00;;;;;;;;;;5081275;28;24448;-48
2022/07/04 00:21:56;;;;;;;5.00;4.53;;;;;;;;;;5078330;28;24434;-47
2022/07/04 00:24:22;;;;;;;5.13;4.72;;;;;;;;;;5075949;28;24777;-46
2022/07/04 00:26:47;;;;;;;5.10;4.70;;;;;;;;;;5082409;28;24654;-47
2022/07/04 00:29:12;;;;;;;5.28;4.97;;;;;;;;;;5070111;28;24462;-47
2022/07/04 00:31:37;;;;;;;5.20;4.90;;;;;;;;;;5077777;28;25068;-47
2022/07/04 00:34:02;;;;;;;5.60;5.10;;;;;;;;;;5080909;28;24471;-47
2022/07/04 00:36:27;;;;;;;5.10;4.80;;;;;;;;;;5082392;28;24525;-46
2022/07/04 00:38:53;;;;;;;5.10;4.80;;;;;;;;;;5070607;28;24452;-46
2022/07/04 00:41:18;;;;;;;5.45;5.05;;;;;;;;;;5085477;28;24517;-46
2022/07/04 00:43:43;;;;;;;4.83;4.53;;;;;;;;;;5075967;28;24509;-47
2022/07/04 00:46:08;;;;;;;5.10;4.70;;;;;;;;;;5076488;28;24511;-47
2022/07/04 00:48:33;;;;;;;5.78;5.28;;;;;;;;;;5075140;28;24437;-47
2022/07/04 00:50:59;;;;;;;4.63;4.33;;;;;;;;;;5075733;28;24910;-47
2022/07/04 00:53:24;;;;;;;5.40;5.00;;;;;;;;;;5079688;28;25010;-47
2022/07/04 00:55:52;;;;;;;5.32;4.93;;;;;;;;;;5072533;28;24505;-47
2022/07/04 00:58:21;;;;;;;5.30;4.90;;;;;;;;;;5071100;28;24421;-46
2022/07/04 01:00:47;;;;;;;5.20;4.80;;;;;;;;;;5075207;28;25032;-47
2022/07/04 01:03:12;;;;;;;5.10;4.70;;;;;;;;;;5078834;28;24462;-47
2022/07/04 01:05:38;;;;;;;5.20;4.90;;;;;;;;;;5084145;28;25233;-47
2022/07/04 01:08:03;;;;;;;5.60;5.10;;;;;;;;;;5082983;28;24436;-47
2022/07/04 01:10:28;;;;;;;5.30;5.00;;;;;;;;;;5082099;28;24869;-46
2022/07/04 01:12:54;;;;;;;5.35;4.95;;;;;;;;;;5085850;28;24415;-46
2022/07/04 01:15:20;;;;;;;5.00;4.60;;;;;;;;;;5077726;28;24513;-46
2022/07/04 01:17:45;;;;;;;4.80;4.50;;;;;;;;;;5080320;28;25064;-46
2022/07/04 01:20:11;;;;;;;4.32;4.13;;;;;;;;;;5075722;28;24789;-47
2022/07/04 01:22:36;;;;;;;4.70;4.40;;;;;;;;;;5079869;28;24425;-47
2022/07/04 01:25:03;;;;;;;4.60;4.30;;;;;;;;;;5079404;28;24418;-47
2022/07/04 01:27:28;;;;;;;4.10;3.80;;;;;;;;;;5086430;28;24590;-46
2022/07/04 01:29:53;;;;;;;3.90;3.70;;;;;;;;;;5080667;28;24482;-47
2022/07/04 01:32:18;;;;;;;3.78;3.58;;;;;;;;;;5075692;28;24426;-47
2022/07/04 01:34:43;;;;;;;3.60;3.30;;;;;;;;;;5082111;28;24411;-47
2022/07/04 01:37:08;;;;;;;3.90;3.50;;;;;;;;;;5076565;28;24456;-46
2022/07/04 01:39:33;;;;;;;3.60;3.40;;;;;;;;;;5076758;28;25089;-47
2022/07/04 01:41:59;;;;;;;3.40;3.20;;;;;;;;;;5079002;28;24478;-46
2022/07/04 01:44:24;;;;;;;3.70;3.50;;;;;;;;;;5084125;28;24580;-46
2022/07/04 01:46:49;;;;;;;3.60;3.30;;;;;;;;;;5077813;28;25214;-46
2022/07/04 01:49:14;;;;;;;3.20;3.00;;;;;;;;;;5069711;28;24415;-47
2022/07/04 01:51:45;;;;;;;3.45;3.25;;;;;;;;;;5079291;28;24430;-45
2022/07/04 01:54:11;;;;;;;3.90;3.43;;;;;;;;;;5081047;28;24768;-46
2022/07/04 01:56:36;;;;;;;3.35;3.15;;;;;;;;;;5085429;28;24785;-46
2022/07/04 01:59:03;;;;;;;3.30;3.10;;;;;;;;;;5076162;28;25110;-46
2022/07/04 02:01:31;;;;;;;3.20;3.00;;;;;;;;;;5074702;28;24465;-46
2022/07/04 02:03:57;;;;;;;3.78;3.55;;;;;;;;;;5075986;28;24517;-46
2022/07/04 02:06:22;;;;;;;3.83;3.53;;;;;;;;;;5079108;28;24578;-46
2022/07/04 02:13:00;;;;;;;3.50;3.30;;;;;;;;;;5083866;28;24425;-46
2022/07/04 02:14:16;;;;;;;3.63;3.33;;;;;;;;;;5078587;28;24777;-46
2022/07/04 02:16:42;;;;;;;3.35;3.15;;;;;;;;;;5074409;28;25185;-45
2022/07/04 02:19:07;;;;;;;3.45;3.25;;;;;;;;;;5080265;28;24423;-46
2022/07/04 02:21:32;;;;;;;3.40;3.20;;;;;;;;;;5081602;28;24462;-46
2022/07/04 02:23:57;;;;;;;3.33;3.03;;;;;;;;;;5082355;28;25316;-46
2022/07/04 02:26:22;;;;;;;3.33;3.13;;;;;;;;;;5082615;28;24553;-46
2022/07/04 02:28:47;;;;;;;3.30;3.10;;;;;;;;;;5075245;28;24445;-45
2022/07/04 02:31:13;;;;;;;3.50;3.30;;;;;;;;;;5085099;28;24467;-46
2022/07/04 02:33:38;;;;;;;3.75;3.55;;;;;;;;;;5067676;28;24462;-47
2022/07/04 02:36:03;;;;;;;3.20;3.00;;;;;;;;;;5070203;28;24807;-47
2022/07/04 02:38:28;;;;;;;4.00;3.70;;;;;;;;;;5081151;28;24487;-47
2022/07/04 02:40:53;;;;;;;3.40;3.20;;;;;;;;;;5078736;28;24422;-47
2022/07/04 02:43:18;;;;;;;3.47;3.17;;;;;;;;;;5075245;28;24467;-46
2022/07/04 02:45:44;;;;;;;3.60;3.30;;;;;;;;;;5068413;28;24457;-46
2022/07/04 02:48:09;;;;;;;4.15;3.90;;;;;;;;;;5077894;28;24809;-47
2022/07/04 02:50:35;;;;;;;3.35;3.15;;;;;;;;;;5072906;28;24863;-47
2022/07/04 02:53:00;;;;;;;3.60;3.40;;;;;;;;;;5080946;28;24430;-46
2022/07/04 02:55:25;;;;;;;3.38;3.17;;;;;;;;;;5080804;28;25025;-46
2022/07/04 02:57:50;;;;;;;4.50;3.50;;;;;;;;;;5087657;28;24610;-46
2022/07/04 03:00:15;;;;;;;3.70;3.40;;;;;;;;;;5073965;28;24419;-45
2022/07/04 03:02:40;;;;;;;3.50;3.30;;;;;;;;;;5079250;28;25057;-46
2022/07/04 03:05:06;;;;;;;3.50;3.20;;;;;;;;;;5082365;28;24425;-45
2022/07/04 03:07:31;;;;;;;3.50;3.10;;;;;;;;;;5084174;28;24418;-46
2022/07/04 03:09:56;;;;;;;3.20;3.00;;;;;;;;;;5086819;28;24422;-46
2022/07/04 03:12:21;;;;;;;2.80;2.60;;;;;;;;;;5072346;28;24439;-46
2022/07/04 03:14:46;;;;;;;3.20;3.00;;;;;;;;;;5083056;28;24868;-47
2022/07/04 03:17:11;;;;;;;3.72;3.42;;;;;;;;;;5074577;28;24429;-48
2022/07/04 03:19:37;;;;;;;3.00;2.80;;;;;;;;;;5076155;28;24569;-46
2022/07/04 03:22:02;;;;;;;3.25;3.05;;;;;;;;;;5084894;28;25000;-46
2022/07/04 03:24:27;;;;;;;3.70;3.43;;;;;;;;;;5084818;28;24426;-46
2022/07/04 03:26:52;;;;;;;3.20;3.00;;;;;;;;;;5088876;28;25084;-46
2022/07/04 03:29:17;;;;;;;3.38;3.10;;;;;;;;;;5085935;28;24513;-47
2022/07/04 03:31:42;;;;;;;3.60;3.30;;;;;;;;;;5081120;28;25271;-46
2022/07/04 03:34:07;;;;;;;3.27;2.97;;;;;;;;;;5076484;28;24433;-46
2022/07/04 03:36:33;;;;;;;3.08;2.88;;;;;;;;;;5086356;28;24486;-46
2022/07/04 03:38:58;;;;;;;2.78;2.67;;;;;;;;;;5079943;28;24781;-46
2022/07/04 03:41:23;;;;;;;2.70;2.60;;;;;;;;;;5067423;28;24434;-46
2022/07/04 03:43:48;;;;;;;2.70;2.50;;;;;;;;;;5085590;28;24517;-46
2022/07/04 03:46:13;;;;;;;2.80;2.60;;;;;;;;;;5078001;28;25011;-46
2022/07/04 03:48:38;;;;;;;2.60;2.50;;;;;;;;;;5076690;28;24471;-46
2022/07/04 03:51:04;;;;;;;2.90;2.70;;;;;;;;;;5077410;28;24736;-47
2022/07/04 03:53:29;;;;;;;3.70;2.70;;;;;;;;;;5080740;28;24430;-46
2022/07/04 03:55:54;;;;;;;3.10;2.90;;;;;;;;;;5081159;28;24425;-48
2022/07/04 03:58:19;;;;;;;3.30;3.10;;;;;;;;;;5073768;28;24431;-47
2022/07/04 04:00:44;;;;;;;2.90;2.70;;;;;;;;;;5080516;28;24781;-47
2022/07/04 04:05:54;;;;;;;3.00;2.80;;;;;;;;;;5083422;28;25065;-47
2022/07/04 04:08:19;;;;;;;3.20;2.90;;;;;;;;;;5078704;28;24527;-47
2022/07/04 04:10:44;;;;;;;2.97;2.77;;;;;;;;;;5070742;28;24592;-47
2022/07/04 04:13:09;;;;;;;2.70;2.50;;;;;;;;;;5084844;28;24418;-47
2022/07/04 04:15:34;;;;;;;3.20;2.90;;;;;;;;;;5079398;28;24422;-48
2022/07/04 04:17:59;;;;;;;2.70;2.50;;;;;;;;;;5072966;28;24428;-48
2022/07/04 04:20:24;;;;;;;2.83;2.60;;;;;;;;;;5070969;28;24532;-48
2022/07/04 04:22:50;;;;;;;3.00;2.70;;;;;;;;;;5077506;28;24499;-48
2022/07/04 04:25:15;;;;;;;2.92;2.72;;;;;;;;;;5083034;28;24425;-47
2022/07/04 04:27:40;;;;;;;3.40;3.10;;;;;;;;;;5063669;28;24430;-48
2022/07/04 04:30:05;;;;;;;3.40;3.10;;;;;;;;;;5077682;28;24452;-48
2022/07/04 04:32:31;;;;;;;3.30;3.10;;;;;;;;;;5076287;28;24501;-48
2022/07/04 04:34:57;;;;;;;3.17;2.97;;;;;;;;;;5077712;28;24453;-46
2022/07/04 04:37:22;;;;;;;4.10;3.00;;;;;;;;;;5074994;28;24462;-46
2022/07/04 04:39:47;;;;;;;3.30;3.00;;;;;;;;;;5073791;28;24865;-47
2022/07/04 04:42:12;;;;;;;3.90;3.60;;;;;;;;;;5067403;28;24430;-46
2022/07/04 04:44:38;;;;;;;3.47;3.17;;;;;;;;;;5076047;28;24418;-47
2022/07/04 04:47:03;;;;;;;3.80;3.50;;;;;;;;;;5081372;28;25282;-47
2022/07/04 04:49:28;;;;;;;3.60;3.30;;;;;;;;;;5067053;28;24425;-47
2022/07/04 04:51:53;;;;;;;3.50;3.20;;;;;;;;;;5077784;28;24523;-47
2022/07/04 04:54:18;;;;;;;3.70;3.40;;;;;;;;;;5075111;28;24518;-47
2022/07/04 04:56:43;;;;;;;3.60;3.30;;;;;;;;;;5080933;28;24430;-47
2022/07/04 04:59:09;;;;;;;4.10;3.70;;;;;;;;;;5076624;28;24974;-46
2022/07/04 05:01:34;;;;;;;3.20;3.00;;;;;;;;;;5071297;28;24413;-46
2022/07/04 05:04:00;;;;;;;3.40;3.20;;;;;;;;;;5074034;28;25064;-47
2022/07/04 05:06:25;;;;;;;3.72;3.42;;;;;;;;;;5068720;28;25120;-47
2022/07/04 05:08:50;;;;;;;3.30;3.10;;;;;;;;;;5069268;28;24429;-46
2022/07/04 05:11:15;;;;;;;3.60;3.30;;;;;;;;;;5082590;28;24390;-46
2022/07/04 05:13:40;;;;;;;3.90;3.60;;;;;;;;;;5078377;28;24423;-46
2022/07/04 05:16:06;;;;;;;4.10;3.80;;;;;;;;;;5071942;28;25015;-48
2022/07/04 05:18:31;;;;;;;3.30;3.10;;;;;;;;;;5080124;28;24434;-47
2022/07/04 05:20:57;;;;;;;4.43;4.13;;;;;;;;;;5084665;28;24425;-46
2022/07/04 05:23:22;;;;;;;4.30;4.00;;;;;;;;;;5064982;28;24446;-46
2022/07/04 05:25:48;;;;;;;3.67;3.38;;;;;;;;;;5075509;28;24437;-46
2022/07/04 05:28:56;;;;;;;4.13;3.60;;;;;;;;;;5064959;28;25009;-47
2022/07/04 05:31:20;;;;;;;4.00;3.70;;;;;;;;;;5062170;28;24440;-46
2022/07/04 05:33:45;;;;;;;3.80;3.50;;;;;;;;;;5064653;28;24536;-45
2022/07/04 05:36:10;;;;;;;4.00;3.70;;;;;;;;;;5064328;28;24434;-46
2022/07/04 05:38:35;;;;;;;3.53;3.30;;;;;;;;;;5064627;28;24948;-47
2022/07/04 05:41:01;;;;;;;3.75;3.40;;;;;;;;;;5068550;28;24564;-47
2022/07/04 05:43:26;;;;;;;4.03;3.70;;;;;;;;;;5084440;28;24394;-46
2022/07/04 05:45:51;;;;;;;3.95;3.65;;;;;;;;;;5077078;28;24457;-46
2022/07/04 05:48:16;;;;;;;3.85;3.55;;;;;;;;;;5079471;28;24425;-48
2022/07/04 05:50:41;;;;;;;3.87;3.67;;;;;;;;;;5071859;28;24423;-48
2022/07/04 05:53:07;;;;;;;4.70;3.50;;;;;;;;;;5076264;28;24472;-48
2022/07/04 05:55:33;;;;;;;3.75;3.45;;;;;;;;;;5066168;28;24512;-47
2022/07/04 05:57:58;;;;;;;3.20;3.00;;;;;;;;;;5069027;28;24419;-48
2022/07/04 06:00:23;;;;;;;3.00;2.80;;;;;;;;;;5074384;28;24440;-48
2022/07/04 06:02:48;;;;;;;3.37;3.10;;;;;;;;;;5067934;28;25034;-47
2022/07/04 06:05:13;;;;;;;3.30;3.00;;;;;;;;;;5074397;28;24430;-47
2022/07/04 06:07:38;;;;;;;3.10;2.90;;;;;;;;;;5072156;28;24777;-48
2022/07/04 06:10:04;;;;;;;3.37;3.17;;;;;;;;;;5071685;28;24994;-48
2022/07/04 06:12:30;;;;;;;3.00;2.80;;;;;;;;;;5068098;28;24457;-47
2022/07/04 06:14:55;;;;;;;4.00;3.70;;;;;;;;;;5067799;28;24774;-48
2022/07/04 06:17:21;;;;;;;3.90;3.60;;;;;;;;;;5071117;28;24472;-47
2022/07/04 06:19:46;;;;;;;3.90;3.60;;;;;;;;;;5081224;28;24437;-48
2022/07/04 06:22:11;;;;;;;4.47;4.17;;;;;;;;;;5077680;28;24490;-47
2022/07/04 06:24:36;;;;;;;4.10;3.50;;;;;;;;;;5084968;28;24425;-47
2022/07/04 06:27:03;;;;;;;3.55;3.25;;;;;;;;;;5069364;28;24600;-47
2022/07/04 06:29:28;;;;;;;3.70;3.50;;;;;;;;;;5067350;28;24391;-48
2022/07/04 06:31:53;;;;;;;3.53;3.20;;;;;;;;;;5082766;28;24441;-48
2022/07/04 06:37:02;;;;;;;4.20;3.80;;;;;;;;;;5085581;28;24548;-48
2022/07/04 06:39:27;;;;;;;3.20;3.00;;;;;;;;;;5076096;28;24532;-48
2022/07/04 06:41:53;;;;;;;4.07;3.50;;;;;;;;;;5083367;28;25010;-47
2022/07/04 06:44:18;;;;;;;3.00;2.80;;;;;;;;;;5085454;28;25010;-46
2022/07/04 06:46:44;;;;;;;3.20;3.00;;;;;;;;;;5086780;28;24495;-45
2022/07/04 06:49:09;;;;;;;3.80;3.60;;;;;;;;;;5087227;28;24397;-45
2022/07/04 06:51:34;;;;;;;3.20;3.00;;;;;;;;;;5087392;28;24472;-46
2022/07/04 06:53:59;;;;;;;3.40;3.10;;;;;;;;;;5087571;28;24393;-46
2022/07/04 06:56:24;;;;;;;3.03;2.83;;;;;;;;;;5068121;28;24475;-46
2022/07/04 06:58:49;;;;;;;3.70;3.40;;;;;;;;;;5066966;28;24406;-45
2022/07/04 07:01:16;;;;;;;3.80;3.60;;;;;;;;;;5066957;28;24732;-47
2022/07/04 07:03:41;;;;;;;3.60;3.30;;;;;;;;;;5066866;28;24399;-46
2022/07/04 07:06:06;;;;;;;2.90;2.80;;;;;;;;;;5066928;28;24426;-47
2022/07/04 07:08:31;;;;;;;3.80;3.40;;;;;;;;;;5066402;28;25071;-46
2022/07/04 07:10:57;;;;;;;3.10;2.90;;;;;;;;;;5069933;28;24484;-47
2022/07/04 07:13:22;;;;;;;3.58;3.28;;;;;;;;;;5082269;28;24406;-47
2022/07/04 07:15:47;;;;;;;3.30;3.10;;;;;;;;;;5082117;28;24474;-47
2022/07/04 07:18:12;;;;;;;3.38;3.08;;;;;;;;;;5072313;28;25140;-47
2022/07/04 07:20:37;;;;;;;3.40;3.03;;;;;;;;;;5087101;28;24428;-48
2022/07/04 07:23:03;;;;;;;3.67;3.38;;;;;;;;;;5085187;28;24441;-47
2022/07/04 07:25:29;;;;;;;3.38;3.10;;;;;;;;;;5086556;28;24772;-48
2022/07/04 07:27:54;;;;;;;3.40;3.10;;;;;;;;;;5085578;28;24916;-48
2022/07/04 07:30:19;;;;;;;3.55;3.35;;;;;;;;;;5067119;28;24513;-47
2022/07/04 07:32:44;;;;;;;3.00;2.80;;;;;;;;;;5083073;28;24425;-47
2022/07/04 07:35:11;;;;;;;3.30;3.10;;;;;;;;;;5086458;28;24393;-48
2022/07/04 07:37:36;;;;;;;3.40;3.20;;;;;;;;;;5086625;28;24402;-47
2022/07/04 07:40:02;;;;;;;3.35;3.05;;;;;;;;;;5084824;28;25306;-47
2022/07/04 07:42:27;;;;;;;3.60;3.30;;;;;;;;;;5084461;28;24772;-47
2022/07/04 07:44:52;;;;;;;3.10;2.90;;;;;;;;;;5086339;28;24506;-48
2022/07/04 07:47:17;;;;;;;3.30;3.00;;;;;;;;;;5085759;28;24418;-47
2022/07/04 07:49:44;;;;;;;3.10;2.90;;;;;;;;;;5085895;28;24493;-48
2022/07/04 07:52:09;;;;;;;3.30;3.10;;;;;;;;;;5077839;28;24430;-48
2022/07/04 07:54:34;;;;;;;3.50;3.30;;;;;;;;;;5065060;28;24393;-48
2022/07/04 07:56:59;;;;;;;3.67;3.38;;;;;;;;;;5065938;28;24460;-48
2022/07/04 07:59:24;;;;;;;2.95;2.72;;;;;;;;;;5065841;28;24389;-48
2022/07/04 08:01:49;;;;;;;3.53;3.30;;;;;;;;;;5065451;28;24406;-47
2022/07/04 08:06:58;;;;;;;4.03;3.50;;;;;;;;;;5067473;28;24430;-48
2022/07/04 08:09:23;;;;;;;3.03;2.83;;;;;;;;;;5086587;28;24421;-47
2022/07/04 08:11:48;;;;;;;3.40;3.20;;;;;;;;;;5076490;28;24508;-47
2022/07/04 08:14:14;;;;;;;4.00;3.60;;;;;;;;;;5079920;28;25018;-47
2022/07/04 08:16:40;;;;;;;3.90;3.60;;;;;;;;;;5065437;28;24488;-48
2022/07/04 08:19:05;;;;;;;4.00;3.10;;;;;;;;;;5065547;28;25208;-47
2022/07/04 08:21:30;;;;;;;3.30;3.10;;;;;;;;;;5065321;28;24437;-49
2022/07/04 08:23:55;;;;;;;2.90;2.70;;;;;;;;;;5072889;28;24440;-48
2022/07/04 08:26:20;;;;;;;2.90;2.70;;;;;;;;;;5085541;28;24414;-47
2022/07/04 08:28:46;;;;;;;3.53;3.33;;;;;;;;;;5085655;28;24409;-47
2022/07/04 08:31:11;;;;;;;3.50;3.20;;;;;;;;;;5085739;28;24808;-47
2022/07/04 08:33:36;;;;;;;3.30;3.10;;;;;;;;;;5082782;28;24914;-48
2022/07/04 08:36:02;;;;;;;3.17;2.97;;;;;;;;;;5065506;28;24750;-48
2022/07/04 08:38:27;;;;;;;2.60;2.50;;;;;;;;;;5065904;28;24400;-48
2022/07/04 08:40:56;;;;;;;2.90;2.60;;;;;;;;;;5065473;28;24423;-47
2022/07/04 08:43:22;;;;;;;3.80;3.40;;;;;;;;;;5065619;28;24497;-47
2022/07/04 08:45:47;;;;;;;3.20;3.00;;;;;;;;;;5064834;28;24578;-47
2022/07/04 08:48:13;;;;;;;3.50;3.30;;;;;;;;;;5069895;28;24406;-47
2022/07/04 08:50:42;;;;;;;3.33;3.13;;;;;;;;;;5085554;28;24412;-47
2022/07/04 08:53:12;;;;;;;3.47;3.17;;;;;;;;;;5085434;28;24394;-47
2022/07/04 08:58:25;;;;;;;3.75;3.55;;;;;;;;;;5065597;28;24394;-46
2022/07/04 09:00:54;;;;;;;3.50;3.30;;;;;;;;;;5065088;28;24764;-46
2022/07/04 09:03:19;;;;;;;3.40;3.20;;;;;;;;;;5065455;28;24468;-47
2022/07/04 09:05:45;;;;;;;3.30;3.00;;;;;;;;;;5064426;28;24458;-47
2022/07/04 09:08:10;;;;;;;3.50;3.20;;;;;;;;;;5065120;28;24797;-47
2022/07/04 09:10:36;;;;;;;3.10;2.90;;;;;;;;;;5064848;28;24394;-46
2022/07/04 09:13:03;;;;;;;2.80;2.60;;;;;;;;;;5065100;28;24402;-48
2022/07/04 09:15:28;;;;;;;2.75;2.55;;;;;;;;;;5064848;28;24406;-47
2022/07/04 09:17:54;;;;;;;3.43;3.23;;;;;;;;;;5064863;28;24774;-47
2022/07/04 09:20:20;;;;;;;3.30;2.70;;;;;;;;;;5065864;28;24940;-48
2022/07/04 09:22:47;;;;;;;3.30;3.10;;;;;;;;;;5064939;28;24474;-47
2022/07/04 09:25:14;;;;;;;3.10;2.90;;;;;;;;;;5064510;28;24406;-47
2022/07/04 09:27:41;;;;;;;3.60;3.30;;;;;;;;;;5065598;28;24521;-48
2022/07/04 09:30:07;;;;;;;3.47;3.27;;;;;;;;;;5068861;28;24761;-47
2022/07/04 09:32:33;;;;;;;3.20;3.00;;;;;;;;;;5068441;28;24981;-47
2022/07/04 09:34:59;;;;;;;3.20;3.00;;;;;;;;;;5068863;28;24474;-47
2022/07/04 09:37:33;;;;;;;2.60;2.40;;;;;;;;;;5068753;28;24730;-48
2022/07/04 09:39:58;;;;;;;3.20;2.90;;;;;;;;;;5068407;28;24409;-47
2022/07/04 09:42:23;;;;;;;2.78;2.58;;;;;;;;;;5068343;28;24403;-47
2022/07/04 09:44:51;;;;;;;2.90;2.70;;;;;;;;;;5068604;28;24433;-47
2022/07/04 09:47:24;;;;;;;3.10;2.90;;;;;;;;;;5072984;28;24430;-48
2022/07/04 09:50:25;;;;;;;3.60;2.60;;;;;;;;;;5068572;28;24403;-47
2022/07/04 09:52:53;;;;;;;3.30;2.80;;;;;;;;;;5019217;28;24523;-47
2022/07/04 09:55:29;;;;;;;4.03;3.10;;;;;;;;;;5076499;28;24417;-48
2022/07/04 09:57:56;;;;;;;3.42;3.13;;;;;;;;;;5086831;28;24433;-47
2022/07/04 10:00:23;;;;;;;2.78;2.55;;;;;;;;;;5088372;28;24493;-47
2022/07/04 10:02:49;;;;;;;2.97;2.78;;;;;;;;;;5087219;28;24452;-47
2022/07/04 10:05:18;;;;;;;3.25;3.05;;;;;;;;;;5088217;28;25117;-48
2022/07/04 10:07:47;;;;;;;2.80;2.60;;;;;;;;;;5077887;28;24526;-48
2022/07/04 10:10:25;;;;;;;2.80;2.60;;;;;;;;;;5068072;28;25197;-46
2022/07/04 10:12:50;;;;;;;2.38;2.28;;;;;;;;;;5068499;28;24397;-47
2022/07/04 10:15:16;;;;;;;2.80;2.60;;;;;;;;;;5066648;28;24419;-47
2022/07/04 10:17:41;;;;;;;2.60;2.40;;;;;;;;;;5065552;28;24510;-46
2022/07/04 10:20:07;;;;;;;2.50;2.40;;;;;;;;;;5067836;28;24746;-47
2022/07/04 10:22:32;;;;;;;2.85;2.63;;;;;;;;;;5067480;28;24476;-46
2022/07/04 10:24:57;;;;;;;2.60;2.50;;;;;;;;;;5067580;28;24449;-47
2022/07/04 10:27:23;;;;;;;2.33;2.20;;;;;;;;;;5067280;28;24431;-47
2022/07/04 10:29:48;;;;;;;2.90;2.70;;;;;;;;;;5067415;28;24422;-46
2022/07/04 10:32:13;;;;;;;2.50;2.40;;;;;;;;;;5067884;28;24387;-47
2022/07/04 10:34:40;;;;;;;2.83;2.63;;;;;;;;;;5067851;28;24868;-46
2022/07/04 10:37:05;;;;;;;3.00;2.80;;;;;;;;;;5067496;28;24398;-46
2022/07/04 10:39:30;;;;;;;2.80;2.60;;;;;;;;;;5066715;28;24960;-47
2022/07/04 10:41:59;;;;;;;3.00;2.80;;;;;;;;;;5067443;28;24402;-46
2022/07/04 10:44:26;;;;;;;2.80;2.60;;;;;;;;;;5077547;28;24819;-47
2022/07/04 10:46:51;;;;;;;2.50;2.30;;;;;;;;;;5086340;28;24604;-47
2022/07/04 10:49:18;;;;;;;3.00;2.80;;;;;;;;;;5087339;28;24621;-46
2022/07/04 10:51:46;;;;;;;3.13;2.92;;;;;;;;;;5087939;28;24460;-46
2022/07/04 10:54:16;;;;;;;3.30;3.10;;;;;;;;;;5081114;28;24438;-46
2022/07/04 10:56:51;;;;;;;3.20;2.70;;;;;;;;;;5064404;28;24499;-46
2022/07/04 10:59:16;;;;;;;2.63;2.50;;;;;;;;;;5067001;28;24426;-47
2022/07/04 11:02:10;;;;;;;2.85;2.72;;;;;;;;;;5066862;28;24383;-47
2022/07/04 11:04:48;;;;;;;2.80;2.70;;;;;;;;;;5057168;28;24438;-46
2022/07/04 11:07:18;;;;;;;2.70;2.50;;;;;;;;;;5066579;28;24410;-46
2022/07/04 11:09:43;;;;;;;2.70;2.60;;;;;;;;;;5066503;28;24383;-47
2022/07/04 11:12:08;;;;;;;2.90;2.70;;;;;;;;;;5066542;28;24390;-47
2022/07/04 11:14:41;;;;;;;3.10;2.80;;;;;;;;;;5066469;28;24532;-46
2022/07/04 11:17:19;;;;;;;2.90;2.70;;;;;;;;;;5066490;28;24939;-47
2022/07/04 11:19:45;;;;;;;2.83;2.65;;;;;;;;;;5066137;28;24403;-47
2022/07/04 11:22:10;;;;;;;2.87;2.70;;;;;;;;;;5066316;28;24423;-48
2022/07/04 11:24:36;;;;;;;3.10;2.90;;;;;;;;;;5066653;28;24386;-48
2022/07/04 11:27:01;;;;;;;3.10;2.90;;;;;;;;;;5081834;28;24685;-47
2022/07/04 11:29:27;;;;;;;2.85;2.45;;;;;;;;;;5086692;28;24757;-47
2022/07/04 11:31:52;;;;;;;3.20;3.00;;;;;;;;;;5076243;28;24429;-46
2022/07/04 11:34:18;;;;;;;2.60;2.50;;;;;;;;;;5078521;28;24580;-47
2022/07/04 11:36:44;;;;;;;3.90;3.33;;;;;;;;;;5084584;28;24390;-46
2022/07/04 11:39:11;;;;;;;2.80;2.60;;;;;;;;;;5086810;28;24382;-47
2022/07/04 11:47:15;;;;;;;2.67;2.50;;;;;;;;;;5085840;28;25319;-47
2022/07/04 11:49:51;;;;;;;2.87;2.67;;;;;;;;;;5086843;28;24451;-47
2022/07/04 11:52:17;;;;;;;3.42;2.92;;;;;;;;;;5074288;28;24518;-47
2022/07/04 11:54:43;;;;;;;2.80;2.60;;;;;;;;;;5065208;28;24391;-47
2022/07/04 11:57:19;;;;;;;2.50;2.40;;;;;;;;;;5064781;28;24398;-48
2022/07/04 11:59:52;;;;;;;3.10;2.50;;;;;;;;;;5065164;28;24410;-47
2022/07/04 12:02:17;;;;;;;2.67;2.47;;;;;;;;;;5066409;28;24449;-47
2022/07/04 12:04:42;;;;;;;2.80;2.60;;;;;;;;;;5083758;28;24422;-47
2022/07/04 12:07:18;;;;;;;2.90;2.70;;;;;;;;;;5085153;28;24460;-47
2022/07/04 12:09:45;;;;;;;2.83;2.65;;;;;;;;;;5085913;28;24490;-46
2022/07/04 12:12:11;;;;;;;3.30;3.00;;;;;;;;;;5085782;28;24383;-47
2022/07/04 12:14:36;;;;;;;2.53;2.33;;;;;;;;;;5068906;28;24421;-48
2022/07/04 12:17:10;;;;;;;3.25;2.90;;;;;;;;;;5065561;28;25029;-47
2022/07/04 12:19:36;;;;;;;3.15;2.90;;;;;;;;;;5065352;28;24967;-47
2022/07/04 12:22:01;;;;;;;2.83;2.63;;;;;;;;;;5065553;28;24413;-47
2022/07/04 12:24:27;;;;;;;3.37;3.07;;;;;;;;;;5074631;28;24433;-48
2022/07/04 12:26:52;;;;;;;2.70;2.50;;;;;;;;;;5085060;28;24525;-47
2022/07/04 12:29:21;;;;;;;2.78;2.58;;;;;;;;;;5064638;28;24418;-47
2022/07/04 12:31:50;;;;;;;2.75;2.50;;;;;;;;;;5065207;28;24398;-47
2022/07/04 12:34:16;;;;;;;4.07;2.53;;;;;;;;;;5065556;28;24784;-48
2022/07/04 12:36:59;;;;;;;2.40;2.20;;;;;;;;;;5070205;28;25355;-47
2022/07/04 12:39:31;;;;;;;2.50;2.30;;;;;;;;;;5085930;28;24393;-48
2022/07/04 12:42:14;;;;;;;2.70;2.50;;;;;;;;;;5085453;28;24390;-48
2022/07/04 12:44:40;;;;;;;2.70;2.50;;;;;;;;;;5085368;28;24414;-47
2022/07/04 12:47:06;;;;;;;2.50;2.30;;;;;;;;;;5084039;28;24465;-47
2022/07/04 12:49:32;;;;;;;2.80;2.60;;;;;;;;;;5085727;28;24390;-47
2022/07/04 12:52:04;;;;;;;2.90;2.70;;;;;;;;;;5085813;28;24741;-48
2022/07/04 12:54:29;;;;;;;2.80;2.60;;;;;;;;;;5085567;28;24398;-47
2022/07/04 12:57:02;;;;;;;2.40;2.30;;;;;;;;;;5083906;28;24437;-47
2022/07/04 12:59:27;;;;;;;2.50;2.40;;;;;;;;;;5085609;28;24402;-46
2022/07/04 13:01:53;;;;;;;3.00;2.77;;;;;;;;;;5086319;28;24422;-47
2022/07/04 13:04:18;;;;;;;2.73;2.53;;;;;;;;;;5089719;28;24397;-47
2022/07/04 13:06:43;;;;;;;2.95;2.65;;;;;;;;;;5089786;28;24589;-47
2022/07/04 13:09:08;;;;;;;4.07;2.40;;;;;;;;;;5089424;28;24773;-46
2022/07/04 13:14:18;;;;;;;2.90;2.70;;;;;;;;;;5089813;28;24961;-48
2022/07/04 13:16:43;;;;;;;2.60;2.40;;;;;;;;;;5089712;28;24406;-47
2022/07/04 13:19:08;;;;;;;2.30;2.20;;;;;;;;;;5088742;28;24414;-47
2022/07/04 13:21:33;;;;;;;2.60;2.40;;;;;;;;;;5089402;28;24397;-46
2022/07/04 13:23:58;;;;;;;2.60;2.40;;;;;;;;;;5089203;28;24411;-51
2022/07/04 13:26:24;;;;;;;3.70;2.53;;;;;;;;;;5089369;28;24503;-47
2022/07/04 13:28:50;;;;;;;2.80;2.60;;;;;;;;;;5089306;28;24551;-46
2022/07/04 13:31:15;;;;;;;3.70;2.37;;;;;;;;;;5089165;28;24550;-46
2022/07/04 13:33:40;;;;;;;2.90;2.40;;;;;;;;;;5086955;28;24447;-47
2022/07/04 13:36:06;;;;;;;2.60;2.40;;;;;;;;;;5085533;28;24549;-47
2022/07/04 13:38:31;;;;;;;3.22;2.30;;;;;;;;;;5088798;28;24398;-47
2022/07/04 13:40:57;;;;;;;2.30;2.20;;;;;;;;;;5088803;28;24418;-46
2022/07/04 13:43:23;;;;;;;3.90;2.40;;;;;;;;;;5088564;28;24509;-48
2022/07/04 13:45:48;;;;;;;3.05;2.60;;;;;;;;;;5088404;28;24453;-47
2022/07/04 13:48:14;;;;;;;3.03;2.60;;;;;;;;;;5088539;28;24382;-47
2022/07/04 13:50:39;;;;;;;2.60;2.40;;;;;;;;;;5089013;28;24425;-47
2022/07/04 13:53:04;;;;;;;2.50;2.40;;;;;;;;;;5068775;28;24433;-47
2022/07/04 13:55:30;;;;;;;2.53;2.33;;;;;;;;;;5068117;28;24393;-47
2022/07/04 13:57:55;;;;;;;3.55;2.40;;;;;;;;;;5067519;28;24402;-47
2022/07/04 14:00:20;;;;;;;3.10;2.30;;;;;;;;;;5068146;28;24399;-47
2022/07/04 14:02:45;;;;;;;2.30;2.10;;;;;;;;;;5068147;28;24745;-47
2022/07/04 14:05:11;;;;;;;2.30;2.10;;;;;;;;;;5068178;28;25001;-48
2022/07/04 14:07:36;;;;;;;2.60;2.40;;;;;;;;;;5067774;28;24457;-47
2022/07/04 14:10:01;;;;;;;3.50;2.50;;;;;;;;;;5068196;28;24489;-46
2022/07/04 14:12:26;;;;;;;2.37;2.17;;;;;;;;;;5068147;28;24379;-47
2022/07/04 14:14:51;;;;;;;3.03;2.42;;;;;;;;;;5067198;28;24406;-47
2022/07/04 14:17:17;;;;;;;2.60;2.40;;;;;;;;;;5067751;28;24782;-46
2022/07/04 14:19:42;;;;;;;2.10;2.00;;;;;;;;;;5068086;28;24484;-47
2022/07/04 14:22:07;;;;;;;2.23;2.13;;;;;;;;;;5067563;28;24960;-47
2022/07/04 14:24:33;;;;;;;2.20;1.90;;;;;;;;;;5067939;28;24398;-46
2022/07/04 14:26:58;;;;;;;2.40;2.20;;;;;;;;;;5067682;28;24545;-46
2022/07/04 14:29:23;;;;;;;2.70;2.50;;;;;;;;;;5067258;28;24425;-49
2022/07/04 14:31:48;;;;;;;2.50;2.40;;;;;;;;;;5067996;28;24875;-47
2022/07/04 14:34:13;;;;;;;2.30;2.10;;;;;;;;;;5067880;28;25122;-47
2022/07/04 14:36:39;;;;;;;2.50;2.30;;;;;;;;;;5067957;28;24916;-47
2022/07/04 14:39:04;;;;;;;2.38;2.10;;;;;;;;;;5067627;28;24464;-46
2022/07/04 14:41:29;;;;;;;2.30;2.10;;;;;;;;;;5072414;28;24497;-48
2022/07/04 14:43:55;;;;;;;2.10;2.00;;;;;;;;;;5088024;28;24406;-48
2022/07/04 14:46:20;;;;;;;2.13;2.03;;;;;;;;;;5087596;28;24442;-46
2022/07/04 14:48:45;;;;;;;2.10;2.00;;;;;;;;;;5087781;28;24398;-47
2022/07/04 14:51:10;;;;;;;2.30;2.10;;;;;;;;;;5084365;28;24995;-46
2022/07/04 14:53:35;;;;;;;2.07;1.97;;;;;;;;;;5081808;28;25003;-47
2022/07/04 14:56:00;;;;;;;2.10;2.00;;;;;;;;;;5087438;28;24433;-46
2022/07/04 14:58:26;;;;;;;2.20;1.93;;;;;;;;;;5087329;28;24398;-46